Search for airport 
image banner adimage banner ad
image banner ad

SSKX - Fazenda São Luíz do Matão Airport

Located in Carneirinho, Brazil

ICAO - SSKX, IATA -

Data provided by Airmate  

General information

Coordinates: S11°25'19" W37°19'25"
Elevation is 9 feet MSL.
Magnetic variation is -23° East
View others Airports in Sergipe

Operational data

Open for public use
Current time UTC:
Current local time:
Weather at : SBAR - Santa Maria ( 56 km )
METAR: SBAR 040800Z 08008KT 9999 FEW015 26/24 Q1013
TAF: TAF SBAR 040400Z 0406/0506 07008KT 8000 SCT017 TN26/0409Z TX30/0417Z BECMG 0407/0409 7000 SHRA BECMG 0409/0411 8000 NSW BECMG 0412/0415 10015KT FEW020 BECMG 0421/0423 07008KT SCT017 RMK PHC
View NOTAMs / SUP AIP / TFR affecting this airport [VIEW]
Communications frequencies: [VIEW]

Runways:

RWY identifierQFULength (ft)Width (ft)SurfaceLDA (ft)
13164059DIRT
31164059DIRT

Airport contact information

Address: Carneirinho Brazil

Satellite view of SSKX